sensor_id;sensor_type;location;lat;lon;timestamp;temperature;humidity
6654;DHT22;3363;50.942;7.034;2023-07-29T00:00:34;20.00;99.90
6654;DHT22;3363;50.942;7.034;2023-07-29T00:03:01;20.00;99.90
6654;DHT22;3363;50.942;7.034;2023-07-29T00:05:27;20.00;99.90
6654;DHT22;3363;50.942;7.034;2023-07-29T00:07:54;20.00;99.90
6654;DHT22;3363;50.942;7.034;2023-07-29T00:10:21;20.00;99.90
6654;DHT22;3363;50.942;7.034;2023-07-29T00:12:47;19.90;99.90
6654;DHT22;3363;50.942;7.034;2023-07-29T00:15:16;19.90;99.90
6654;DHT22;3363;50.942;7.034;2023-07-29T00:17:45;19.90;99.90
6654;DHT22;3363;50.942;7.034;2023-07-29T00:20:12;20.00;99.90
6654;DHT22;3363;50.942;7.034;2023-07-29T00:22:38;20.00;99.90
6654;DHT22;3363;50.942;7.034;2023-07-29T00:25:05;20.00;99.90
6654;DHT22;3363;50.942;7.034;2023-07-29T00:27:32;20.00;99.90
6654;DHT22;3363;50.942;7.034;2023-07-29T00:29:59;20.10;99.90
6654;DHT22;3363;50.942;7.034;2023-07-29T00:32:29;20.00;99.90
6654;DHT22;3363;50.942;7.034;2023-07-29T00:34:55;20.00;99.90
6654;DHT22;3363;50.942;7.034;2023-07-29T00:37:22;20.00;99.90
6654;DHT22;3363;50.942;7.034;2023-07-29T00:39:49;20.00;99.90
6654;DHT22;3363;50.942;7.034;2023-07-29T00:42:15;20.00;99.90
6654;DHT22;3363;50.942;7.034;2023-07-29T00:44:42;20.00;99.90
6654;DHT22;3363;50.942;7.034;2023-07-29T00:47:09;19.90;99.90
6654;DHT22;3363;50.942;7.034;2023-07-29T00:49:37;19.90;99.90
6654;DHT22;3363;50.942;7.034;2023-07-29T00:52:04;20.00;99.90
6654;DHT22;3363;50.942;7.034;2023-07-29T00:54:31;19.90;99.90
6654;DHT22;3363;50.942;7.034;2023-07-29T00:56:57;19.90;99.90
6654;DHT22;3363;50.942;7.034;2023-07-29T00:59:24;19.90;99.90
6654;DHT22;3363;50.942;7.034;2023-07-29T01:01:53;19.90;99.90
6654;DHT22;3363;50.942;7.034;2023-07-29T01:04:20;19.90;99.90
6654;DHT22;3363;50.942;7.034;2023-07-29T01:06:49;19.90;99.90
6654;DHT22;3363;50.942;7.034;2023-07-29T01:09:18;19.90;99.90
6654;DHT22;3363;50.942;7.034;2023-07-29T01:11:53;19.80;99.90
6654;DHT22;3363;50.942;7.034;2023-07-29T01:14:23;19.90;99.90
6654;DHT22;3363;50.942;7.034;2023-07-29T01:16:53;19.90;99.90
6654;DHT22;3363;50.942;7.034;2023-07-29T01:19:26;19.90;99.90
6654;DHT22;3363;50.942;7.034;2023-07-29T01:21:56;19.90;99.90
6654;DHT22;3363;50.942;7.034;2023-07-29T01:24:25;19.90;99.90
6654;DHT22;3363;50.942;7.034;2023-07-29T01:26:52;19.90;99.90
6654;DHT22;3363;50.942;7.034;2023-07-29T01:29:19;19.90;99.90
6654;DHT22;3363;50.942;7.034;2023-07-29T01:31:45;19.90;99.90
6654;DHT22;3363;50.942;7.034;2023-07-29T01:34:16;19.90;99.90
6654;DHT22;3363;50.942;7.034;2023-07-29T01:36:43;19.90;99.90
6654;DHT22;3363;50.942;7.034;2023-07-29T01:39:11;19.90;99.90
6654;DHT22;3363;50.942;7.034;2023-07-29T01:41:40;19.90;99.90
6654;DHT22;3363;50.942;7.034;2023-07-29T01:44:07;19.80;99.90
6654;DHT22;3363;50.942;7.034;2023-07-29T01:46:34;19.90;99.90
6654;DHT22;3363;50.942;7.034;2023-07-29T01:49:00;19.90;99.90
6654;DHT22;3363;50.942;7.034;2023-07-29T01:51:27;19.90;99.90
6654;DHT22;3363;50.942;7.034;2023-07-29T01:53:54;19.90;99.90
6654;DHT22;3363;50.942;7.034;2023-07-29T01:56:21;19.90;99.90
6654;DHT22;3363;50.942;7.034;2023-07-29T01:58:49;19.90;99.90
6654;DHT22;3363;50.942;7.034;2023-07-29T02:01:15;19.80;99.90
6654;DHT22;3363;50.942;7.034;2023-07-29T02:03:42;19.80;99.90
6654;DHT22;3363;50.942;7.034;2023-07-29T02:06:09;19.80;99.90
6654;DHT22;3363;50.942;7.034;2023-07-29T02:08:36;19.80;99.90
6654;DHT22;3363;50.942;7.034;2023-07-29T02:11:02;19.80;99.90
6654;DHT22;3363;50.942;7.034;2023-07-29T02:13:29;19.90;99.90
6654;DHT22;3363;50.942;7.034;2023-07-29T02:15:57;19.80;99.90
6654;DHT22;3363;50.942;7.034;2023-07-29T02:18:24;19.60;99.90
6654;DHT22;3363;50.942;7.034;2023-07-29T02:20:51;19.50;99.90
6654;DHT22;3363;50.942;7.034;2023-07-29T02:23:18;19.50;99.90
6654;DHT22;3363;50.942;7.034;2023-07-29T02:25:44;19.60;99.90
6654;DHT22;3363;50.942;7.034;2023-07-29T02:28:11;19.60;99.90
6654;DHT22;3363;50.942;7.034;2023-07-29T02:30:41;19.60;99.90
6654;DHT22;3363;50.942;7.034;2023-07-29T02:33:10;19.60;99.90
6654;DHT22;3363;50.942;7.034;2023-07-29T02:35:37;19.60;99.90
6654;DHT22;3363;50.942;7.034;2023-07-29T02:38:03;19.60;99.90
6654;DHT22;3363;50.942;7.034;2023-07-29T02:40:30;19.60;99.90
6654;DHT22;3363;50.942;7.034;2023-07-29T02:42:57;19.60;99.90
6654;DHT22;3363;50.942;7.034;2023-07-29T02:45:23;19.70;99.90
6654;DHT22;3363;50.942;7.034;2023-07-29T02:47:50;19.70;99.90
6654;DHT22;3363;50.942;7.034;2023-07-29T02:50:18;19.70;99.90
6654;DHT22;3363;50.942;7.034;2023-07-29T02:52:44;19.80;99.90
6654;DHT22;3363;50.942;7.034;2023-07-29T02:55:11;19.80;99.90
6654;DHT22;3363;50.942;7.034;2023-07-29T02:57:38;19.80;99.90
6654;DHT22;3363;50.942;7.034;2023-07-29T03:00:05;19.80;99.90
6654;DHT22;3363;50.942;7.034;2023-07-29T03:02:32;19.80;99.90
6654;DHT22;3363;50.942;7.034;2023-07-29T03:04:59;19.80;99.90
6654;DHT22;3363;50.942;7.034;2023-07-29T03:07:27;19.80;99.90
6654;DHT22;3363;50.942;7.034;2023-07-29T03:09:53;19.80;99.90
6654;DHT22;3363;50.942;7.034;2023-07-29T03:12:20;19.80;99.90
6654;DHT22;3363;50.942;7.034;2023-07-29T03:14:47;19.80;99.90
6654;DHT22;3363;50.942;7.034;2023-07-29T03:17:14;19.80;99.90
6654;DHT22;3363;50.942;7.034;2023-07-29T03:19:40;19.80;99.90
6654;DHT22;3363;50.942;7.034;2023-07-29T03:22:07;19.80;99.90
6654;DHT22;3363;50.942;7.034;2023-07-29T03:24:35;19.70;99.90
6654;DHT22;3363;50.942;7.034;2023-07-29T03:27:01;19.70;99.90
6654;DHT22;3363;50.942;7.034;2023-07-29T03:29:28;19.70;99.90
6654;DHT22;3363;50.942;7.034;2023-07-29T03:31:55;19.70;99.90
6654;DHT22;3363;50.942;7.034;2023-07-29T03:34:21;19.60;99.90
6654;DHT22;3363;50.942;7.034;2023-07-29T03:36:48;19.60;99.90
6654;DHT22;3363;50.942;7.034;2023-07-29T03:39:16;19.70;99.90
6654;DHT22;3363;50.942;7.034;2023-07-29T03:41:44;19.70;99.90
6654;DHT22;3363;50.942;7.034;2023-07-29T03:44:10;19.70;99.90
6654;DHT22;3363;50.942;7.034;2023-07-29T03:46:37;19.70;99.90
6654;DHT22;3363;50.942;7.034;2023-07-29T03:49:03;19.70;99.90
6654;DHT22;3363;50.942;7.034;2023-07-29T03:51:30;19.70;99.90
6654;DHT22;3363;50.942;7.034;2023-07-29T03:53:57;19.70;99.90
6654;DHT22;3363;50.942;7.034;2023-07-29T03:56:23;19.60;99.90
6654;DHT22;3363;50.942;7.034;2023-07-29T03:58:51;19.60;99.90
6654;DHT22;3363;50.942;7.034;2023-07-29T04:01:18;19.60;99.90
6654;DHT22;3363;50.942;7.034;2023-07-29T04:03:45;19.60;99.90
6654;DHT22;3363;50.942;7.034;2023-07-29T04:06:11;19.60;99.90
6654;DHT22;3363;50.942;7.034;2023-07-29T04:08:38;19.60;99.90
6654;DHT22;3363;50.942;7.034;2023-07-29T04:11:04;19.60;99.90
6654;DHT22;3363;50.942;7.034;2023-07-29T04:13:31;19.60;99.90
6654;DHT22;3363;50.942;7.034;2023-07-29T04:15:59;19.60;99.90
6654;DHT22;3363;50.942;7.034;2023-07-29T04:18:27;19.60;99.90
6654;DHT22;3363;50.942;7.034;2023-07-29T04:20:53;19.60;99.90
6654;DHT22;3363;50.942;7.034;2023-07-29T04:23:20;19.60;99.90
6654;DHT22;3363;50.942;7.034;2023-07-29T04:25:46;19.60;99.90
6654;DHT22;3363;50.942;7.034;2023-07-29T04:28:13;19.60;99.90
6654;DHT22;3363;50.942;7.034;2023-07-29T04:30:40;19.60;99.90
6654;DHT22;3363;50.942;7.034;2023-07-29T04:33:08;19.60;99.90
6654;DHT22;3363;50.942;7.034;2023-07-29T04:35:34;19.60;99.90
6654;DHT22;3363;50.942;7.034;2023-07-29T04:38:02;19.60;99.90
6654;DHT22;3363;50.942;7.034;2023-07-29T04:40:28;19.60;99.90
6654;DHT22;3363;50.942;7.034;2023-07-29T04:42:55;19.60;99.90
6654;DHT22;3363;50.942;7.034;2023-07-29T04:45:22;19.60;99.90
6654;DHT22;3363;50.942;7.034;2023-07-29T04:47:49;19.60;99.90
6654;DHT22;3363;50.942;7.034;2023-07-29T04:50:17;19.60;99.90
6654;DHT22;3363;50.942;7.034;2023-07-29T04:52:44;19.60;99.90
6654;DHT22;3363;50.942;7.034;2023-07-29T04:55:10;19.60;99.90
6654;DHT22;3363;50.942;7.034;2023-07-29T04:57:37;19.60;99.90
6654;DHT22;3363;50.942;7.034;2023-07-29T05:00:04;19.60;99.90
6654;DHT22;3363;50.942;7.034;2023-07-29T05:02:31;19.60;99.90
6654;DHT22;3363;50.942;7.034;2023-07-29T05:04:57;19.60;99.90
6654;DHT22;3363;50.942;7.034;2023-07-29T05:07:25;19.60;99.90
6654;DHT22;3363;50.942;7.034;2023-07-29T05:09:52;19.50;99.90
6654;DHT22;3363;50.942;7.034;2023-07-29T05:12:19;19.50;99.90
6654;DHT22;3363;50.942;7.034;2023-07-29T05:14:45;19.50;99.90
6654;DHT22;3363;50.942;7.034;2023-07-29T05:17:13;19.50;99.90
6654;DHT22;3363;50.942;7.034;2023-07-29T05:19:39;19.50;99.90
6654;DHT22;3363;50.942;7.034;2023-07-29T05:22:06;19.50;99.90
6654;DHT22;3363;50.942;7.034;2023-07-29T05:24:34;19.50;99.90
6654;DHT22;3363;50.942;7.034;2023-07-29T05:27:01;19.60;99.90
6654;DHT22;3363;50.942;7.034;2023-07-29T05:29:27;19.60;99.90
6654;DHT22;3363;50.942;7.034;2023-07-29T05:31:54;19.60;99.90
6654;DHT22;3363;50.942;7.034;2023-07-29T05:34:22;19.60;99.90
6654;DHT22;3363;50.942;7.034;2023-07-29T05:36:49;19.60;99.90
6654;DHT22;3363;50.942;7.034;2023-07-29T05:39:15;19.60;99.90
6654;DHT22;3363;50.942;7.034;2023-07-29T05:41:43;19.60;99.90
6654;DHT22;3363;50.942;7.034;2023-07-29T05:44:11;19.60;99.90
6654;DHT22;3363;50.942;7.034;2023-07-29T05:46:37;19.50;99.90
6654;DHT22;3363;50.942;7.034;2023-07-29T05:49:04;19.60;99.90
6654;DHT22;3363;50.942;7.034;2023-07-29T05:51:30;19.50;99.90
6654;DHT22;3363;50.942;7.034;2023-07-29T05:53:57;19.50;99.90
6654;DHT22;3363;50.942;7.034;2023-07-29T05:56:24;19.50;99.90
6654;DHT22;3363;50.942;7.034;2023-07-29T05:58:52;19.50;99.90
6654;DHT22;3363;50.942;7.034;2023-07-29T06:01:19;19.50;99.90
6654;DHT22;3363;50.942;7.034;2023-07-29T06:03:46;19.50;99.90
6654;DHT22;3363;50.942;7.034;2023-07-29T06:06:13;19.60;99.90
6654;DHT22;3363;50.942;7.034;2023-07-29T06:08:40;19.60;99.90
6654;DHT22;3363;50.942;7.034;2023-07-29T06:11:07;19.50;99.90
6654;DHT22;3363;50.942;7.034;2023-07-29T06:13:33;19.60;99.90
6654;DHT22;3363;50.942;7.034;2023-07-29T06:16:01;19.60;99.90
6654;DHT22;3363;50.942;7.034;2023-07-29T06:18:28;19.60;99.90
6654;DHT22;3363;50.942;7.034;2023-07-29T06:20:55;19.60;99.90
6654;DHT22;3363;50.942;7.034;2023-07-29T06:23:22;19.60;99.90
6654;DHT22;3363;50.942;7.034;2023-07-29T06:25:48;19.60;99.90
6654;DHT22;3363;50.942;7.034;2023-07-29T06:28:15;19.60;99.90
6654;DHT22;3363;50.942;7.034;2023-07-29T06:30:42;19.50;99.90
6654;DHT22;3363;50.942;7.034;2023-07-29T06:33:10;19.40;99.90
6654;DHT22;3363;50.942;7.034;2023-07-29T06:35:36;19.50;99.90
6654;DHT22;3363;50.942;7.034;2023-07-29T06:38:03;19.40;99.90
6654;DHT22;3363;50.942;7.034;2023-07-29T06:40:30;19.40;99.90
6654;DHT22;3363;50.942;7.034;2023-07-29T06:42:57;19.50;99.90
6654;DHT22;3363;50.942;7.034;2023-07-29T06:45:23;19.40;99.90
6654;DHT22;3363;50.942;7.034;2023-07-29T06:47:50;19.40;99.90
6654;DHT22;3363;50.942;7.034;2023-07-29T06:50:18;19.40;99.90
6654;DHT22;3363;50.942;7.034;2023-07-29T06:52:45;19.40;99.90
6654;DHT22;3363;50.942;7.034;2023-07-29T06:55:12;19.40;99.90
6654;DHT22;3363;50.942;7.034;2023-07-29T06:57:38;19.40;99.90
6654;DHT22;3363;50.942;7.034;2023-07-29T07:00:05;19.30;99.90
6654;DHT22;3363;50.942;7.034;2023-07-29T07:02:34;19.30;99.90
6654;DHT22;3363;50.942;7.034;2023-07-29T07:05:01;19.40;99.90
6654;DHT22;3363;50.942;7.034;2023-07-29T07:07:29;19.20;99.90
6654;DHT22;3363;50.942;7.034;2023-07-29T07:09:56;19.30;99.90
6654;DHT22;3363;50.942;7.034;2023-07-29T07:12:23;19.40;99.90
6654;DHT22;3363;50.942;7.034;2023-07-29T07:14:49;19.30;99.90
6654;DHT22;3363;50.942;7.034;2023-07-29T07:17:16;19.40;99.90
6654;DHT22;3363;50.942;7.034;2023-07-29T07:19:43;19.50;99.90
6654;DHT22;3363;50.942;7.034;2023-07-29T07:22:10;19.50;99.90
6654;DHT22;3363;50.942;7.034;2023-07-29T07:24:38;19.60;99.90
6654;DHT22;3363;50.942;7.034;2023-07-29T07:27:04;19.50;99.90
6654;DHT22;3363;50.942;7.034;2023-07-29T07:29:31;19.60;99.90
6654;DHT22;3363;50.942;7.034;2023-07-29T07:31:58;19.60;99.90
6654;DHT22;3363;50.942;7.034;2023-07-29T07:34:25;19.60;99.90
6654;DHT22;3363;50.942;7.034;2023-07-29T07:36:51;19.60;99.90
6654;DHT22;3363;50.942;7.034;2023-07-29T07:39:18;19.50;99.90
6654;DHT22;3363;50.942;7.034;2023-07-29T07:41:46;19.40;99.90
6654;DHT22;3363;50.942;7.034;2023-07-29T07:44:13;19.50;99.90
6654;DHT22;3363;50.942;7.034;2023-07-29T07:46:43;19.50;99.90
6654;DHT22;3363;50.942;7.034;2023-07-29T07:49:09;19.50;99.90
6654;DHT22;3363;50.942;7.034;2023-07-29T07:51:36;19.50;99.90
6654;DHT22;3363;50.942;7.034;2023-07-29T07:54:02;19.40;99.90
6654;DHT22;3363;50.942;7.034;2023-07-29T07:56:29;19.50;99.90
6654;DHT22;3363;50.942;7.034;2023-07-29T07:58:57;19.60;99.90
6654;DHT22;3363;50.942;7.034;2023-07-29T08:01:24;19.60;99.90
6654;DHT22;3363;50.942;7.034;2023-07-29T08:03:50;19.60;99.90
6654;DHT22;3363;50.942;7.034;2023-07-29T08:06:17;19.60;99.90
6654;DHT22;3363;50.942;7.034;2023-07-29T08:08:44;19.60;99.90
6654;DHT22;3363;50.942;7.034;2023-07-29T08:11:10;19.60;99.90
6654;DHT22;3363;50.942;7.034;2023-07-29T08:13:37;19.70;99.90
6654;DHT22;3363;50.942;7.034;2023-07-29T08:16:05;19.80;99.90
6654;DHT22;3363;50.942;7.034;2023-07-29T08:18:32;19.80;99.90
6654;DHT22;3363;50.942;7.034;2023-07-29T08:20:59;19.90;99.90
6654;DHT22;3363;50.942;7.034;2023-07-29T08:23:28;19.90;99.90
6654;DHT22;3363;50.942;7.034;2023-07-29T08:25:55;19.80;99.90
6654;DHT22;3363;50.942;7.034;2023-07-29T08:28:26;19.80;99.90
6654;DHT22;3363;50.942;7.034;2023-07-29T08:30:53;19.80;99.90
6654;DHT22;3363;50.942;7.034;2023-07-29T08:33:21;19.80;99.90
6654;DHT22;3363;50.942;7.034;2023-07-29T08:35:48;19.80;99.90
6654;DHT22;3363;50.942;7.034;2023-07-29T08:38:14;19.80;99.90
6654;DHT22;3363;50.942;7.034;2023-07-29T08:40:42;19.80;99.90
6654;DHT22;3363;50.942;7.034;2023-07-29T08:43:09;19.90;99.90
6654;DHT22;3363;50.942;7.034;2023-07-29T08:45:35;20.00;99.90
6654;DHT22;3363;50.942;7.034;2023-07-29T08:48:04;20.00;99.90
6654;DHT22;3363;50.942;7.034;2023-07-29T08:50:34;20.00;99.90
6654;DHT22;3363;50.942;7.034;2023-07-29T08:53:02;20.00;99.90
6654;DHT22;3363;50.942;7.034;2023-07-29T08:55:29;20.00;99.90
6654;DHT22;3363;50.942;7.034;2023-07-29T08:57:57;19.90;99.90
6654;DHT22;3363;50.942;7.034;2023-07-29T09:00:24;19.90;99.90
6654;DHT22;3363;50.942;7.034;2023-07-29T09:02:51;19.80;99.90
6654;DHT22;3363;50.942;7.034;2023-07-29T09:05:18;19.90;99.90
6654;DHT22;3363;50.942;7.034;2023-07-29T09:07:48;19.90;99.90
6654;DHT22;3363;50.942;7.034;2023-07-29T09:10:17;19.90;99.90
6654;DHT22;3363;50.942;7.034;2023-07-29T09:12:47;19.90;99.90
6654;DHT22;3363;50.942;7.034;2023-07-29T09:15:15;20.00;99.90
6654;DHT22;3363;50.942;7.034;2023-07-29T09:17:52;20.00;99.90
6654;DHT22;3363;50.942;7.034;2023-07-29T09:20:22;20.00;99.90
6654;DHT22;3363;50.942;7.034;2023-07-29T09:22:50;20.00;99.90
6654;DHT22;3363;50.942;7.034;2023-07-29T09:25:21;20.00;99.90
6654;DHT22;3363;50.942;7.034;2023-07-29T09:27:48;19.80;99.90
6654;DHT22;3363;50.942;7.034;2023-07-29T09:30:15;19.90;99.90
6654;DHT22;3363;50.942;7.034;2023-07-29T09:32:42;19.80;99.90
6654;DHT22;3363;50.942;7.034;2023-07-29T09:35:09;19.70;99.90
6654;DHT22;3363;50.942;7.034;2023-07-29T09:37:37;19.70;99.90
6654;DHT22;3363;50.942;7.034;2023-07-29T09:40:06;19.70;99.90
6654;DHT22;3363;50.942;7.034;2023-07-29T09:42:33;19.80;99.90
6654;DHT22;3363;50.942;7.034;2023-07-29T09:45:00;19.80;99.90
6654;DHT22;3363;50.942;7.034;2023-07-29T09:47:26;19.80;99.90
6654;DHT22;3363;50.942;7.034;2023-07-29T09:49:54;19.90;99.90
6654;DHT22;3363;50.942;7.034;2023-07-29T09:52:22;19.80;99.90
6654;DHT22;3363;50.942;7.034;2023-07-29T09:54:48;19.80;99.90
6654;DHT22;3363;50.942;7.034;2023-07-29T09:57:18;19.80;99.90
6654;DHT22;3363;50.942;7.034;2023-07-29T09:59:52;19.80;99.90
6654;DHT22;3363;50.942;7.034;2023-07-29T10:02:20;19.90;99.90
6654;DHT22;3363;50.942;7.034;2023-07-29T10:04:47;19.90;99.90
6654;DHT22;3363;50.942;7.034;2023-07-29T10:07:14;19.90;99.90
6654;DHT22;3363;50.942;7.034;2023-07-29T10:09:41;20.10;99.90
6654;DHT22;3363;50.942;7.034;2023-07-29T10:12:08;20.10;99.90
6654;DHT22;3363;50.942;7.034;2023-07-29T10:14:38;20.10;99.90
6654;DHT22;3363;50.942;7.034;2023-07-29T10:17:05;20.10;99.90
6654;DHT22;3363;50.942;7.034;2023-07-29T10:19:32;20.10;99.90
6654;DHT22;3363;50.942;7.034;2023-07-29T10:21:59;20.10;99.90
6654;DHT22;3363;50.942;7.034;2023-07-29T10:24:28;20.10;99.90
6654;DHT22;3363;50.942;7.034;2023-07-29T10:26:57;20.10;99.90
6654;DHT22;3363;50.942;7.034;2023-07-29T10:29:24;20.10;99.90
6654;DHT22;3363;50.942;7.034;2023-07-29T10:31:52;20.10;99.90
6654;DHT22;3363;50.942;7.034;2023-07-29T10:34:19;20.00;99.90
6654;DHT22;3363;50.942;7.034;2023-07-29T10:36:46;19.80;99.90
6654;DHT22;3363;50.942;7.034;2023-07-29T10:39:15;19.90;99.90
6654;DHT22;3363;50.942;7.034;2023-07-29T10:41:55;19.80;99.90
6654;DHT22;3363;50.942;7.034;2023-07-29T10:47:12;19.70;99.90
6654;DHT22;3363;50.942;7.034;2023-07-29T10:49:39;19.80;99.90
6654;DHT22;3363;50.942;7.034;2023-07-29T10:52:06;19.80;99.90
6654;DHT22;3363;50.942;7.034;2023-07-29T10:54:38;19.90;99.90
6654;DHT22;3363;50.942;7.034;2023-07-29T10:57:07;19.90;99.90
6654;DHT22;3363;50.942;7.034;2023-07-29T10:59:34;19.90;99.90
6654;DHT22;3363;50.942;7.034;2023-07-29T11:02:01;19.90;99.90
6654;DHT22;3363;50.942;7.034;2023-07-29T11:04:29;19.90;99.90
6654;DHT22;3363;50.942;7.034;2023-07-29T11:07:01;20.00;99.90
6654;DHT22;3363;50.942;7.034;2023-07-29T11:09:40;20.00;99.90
6654;DHT22;3363;50.942;7.034;2023-07-29T11:14:48;20.00;99.90
6654;DHT22;3363;50.942;7.034;2023-07-29T11:17:15;20.10;99.90
6654;DHT22;3363;50.942;7.034;2023-07-29T11:19:43;20.10;99.90
6654;DHT22;3363;50.942;7.034;2023-07-29T11:22:11;20.20;99.90
6654;DHT22;3363;50.942;7.034;2023-07-29T11:24:40;20.20;99.90
6654;DHT22;3363;50.942;7.034;2023-07-29T11:27:10;20.10;99.90
6654;DHT22;3363;50.942;7.034;2023-07-29T11:29:37;20.10;99.90
6654;DHT22;3363;50.942;7.034;2023-07-29T11:32:04;20.10;99.90
6654;DHT22;3363;50.942;7.034;2023-07-29T11:34:31;20.10;99.90
6654;DHT22;3363;50.942;7.034;2023-07-29T11:36:59;20.10;99.90
6654;DHT22;3363;50.942;7.034;2023-07-29T11:39:26;20.20;99.90
6654;DHT22;3363;50.942;7.034;2023-07-29T11:41:52;20.20;99.90
6654;DHT22;3363;50.942;7.034;2023-07-29T11:44:19;20.30;99.90
6654;DHT22;3363;50.942;7.034;2023-07-29T11:46:46;20.30;99.90
6654;DHT22;3363;50.942;7.034;2023-07-29T11:49:14;20.40;99.90
6654;DHT22;3363;50.942;7.034;2023-07-29T11:51:40;20.50;99.90
6654;DHT22;3363;50.942;7.034;2023-07-29T11:54:09;20.60;99.90
6654;DHT22;3363;50.942;7.034;2023-07-29T11:56:36;20.70;99.90
6654;DHT22;3363;50.942;7.034;2023-07-29T11:59:03;20.60;99.90
6654;DHT22;3363;50.942;7.034;2023-07-29T12:01:30;20.70;99.90
6654;DHT22;3363;50.942;7.034;2023-07-29T12:03:57;20.70;99.90
6654;DHT22;3363;50.942;7.034;2023-07-29T12:06:24;20.70;99.90
6654;DHT22;3363;50.942;7.034;2023-07-29T12:08:51;20.80;99.90
6654;DHT22;3363;50.942;7.034;2023-07-29T12:11:19;20.70;99.10
6654;DHT22;3363;50.942;7.034;2023-07-29T12:13:46;20.80;99.90
6654;DHT22;3363;50.942;7.034;2023-07-29T12:16:16;20.80;99.90
6654;DHT22;3363;50.942;7.034;2023-07-29T12:18:42;20.80;99.90
6654;DHT22;3363;50.942;7.034;2023-07-29T12:21:09;20.80;99.90
6654;DHT22;3363;50.942;7.034;2023-07-29T12:23:36;20.80;98.60
6654;DHT22;3363;50.942;7.034;2023-07-29T12:26:02;20.80;99.90
6654;DHT22;3363;50.942;7.034;2023-07-29T12:28:30;20.80;99.90
6654;DHT22;3363;50.942;7.034;2023-07-29T12:30:57;20.80;99.90
6654;DHT22;3363;50.942;7.034;2023-07-29T12:33:33;20.80;98.90
6654;DHT22;3363;50.942;7.034;2023-07-29T12:36:00;20.80;99.90
6654;DHT22;3363;50.942;7.034;2023-07-29T12:38:27;21.00;99.90
6654;DHT22;3363;50.942;7.034;2023-07-29T12:40:54;21.00;99.90
6654;DHT22;3363;50.942;7.034;2023-07-29T12:43:21;21.20;99.20
6654;DHT22;3363;50.942;7.034;2023-07-29T12:45:50;21.40;98.10
6654;DHT22;3363;50.942;7.034;2023-07-29T12:48:16;21.50;94.50
6654;DHT22;3363;50.942;7.034;2023-07-29T12:50:43;21.50;94.30
6654;DHT22;3363;50.942;7.034;2023-07-29T12:53:10;21.50;95.70
6654;DHT22;3363;50.942;7.034;2023-07-29T12:55:36;21.40;86.20
6654;DHT22;3363;50.942;7.034;2023-07-29T12:58:03;21.30;90.90
6654;DHT22;3363;50.942;7.034;2023-07-29T13:00:30;21.10;92.10
6654;DHT22;3363;50.942;7.034;2023-07-29T13:02:58;21.00;90.90
6654;DHT22;3363;50.942;7.034;2023-07-29T13:05:25;21.10;93.60
6654;DHT22;3363;50.942;7.034;2023-07-29T13:07:51;21.10;93.40
6654;DHT22;3363;50.942;7.034;2023-07-29T13:10:18;21.00;93.60
6654;DHT22;3363;50.942;7.034;2023-07-29T13:12:44;21.00;94.90
6654;DHT22;3363;50.942;7.034;2023-07-29T13:15:11;21.10;93.40
6654;DHT22;3363;50.942;7.034;2023-07-29T13:17:38;21.10;92.90
6654;DHT22;3363;50.942;7.034;2023-07-29T13:20:07;21.10;92.60
6654;DHT22;3363;50.942;7.034;2023-07-29T13:22:34;21.10;93.00
6654;DHT22;3363;50.942;7.034;2023-07-29T13:25:00;21.10;91.20
6654;DHT22;3363;50.942;7.034;2023-07-29T13:27:27;21.10;92.60
6654;DHT22;3363;50.942;7.034;2023-07-29T13:29:54;21.00;94.00
6654;DHT22;3363;50.942;7.034;2023-07-29T13:32:21;20.90;94.50
6654;DHT22;3363;50.942;7.034;2023-07-29T13:34:48;20.90;96.80
6654;DHT22;3363;50.942;7.034;2023-07-29T13:37:16;20.80;96.20
6654;DHT22;3363;50.942;7.034;2023-07-29T13:39:42;20.70;97.30
6654;DHT22;3363;50.942;7.034;2023-07-29T13:42:09;20.60;96.50
6654;DHT22;3363;50.942;7.034;2023-07-29T13:44:36;20.60;99.90
6654;DHT22;3363;50.942;7.034;2023-07-29T13:47:03;20.60;99.90
6654;DHT22;3363;50.942;7.034;2023-07-29T13:49:29;20.50;99.90
6654;DHT22;3363;50.942;7.034;2023-07-29T13:51:56;20.50;99.90
6654;DHT22;3363;50.942;7.034;2023-07-29T13:54:24;20.50;99.90
6654;DHT22;3363;50.942;7.034;2023-07-29T13:56:51;20.50;99.90
6654;DHT22;3363;50.942;7.034;2023-07-29T13:59:19;20.40;99.90
6654;DHT22;3363;50.942;7.034;2023-07-29T14:01:46;20.40;99.90
6654;DHT22;3363;50.942;7.034;2023-07-29T14:04:12;20.40;99.90
6654;DHT22;3363;50.942;7.034;2023-07-29T14:06:39;20.40;99.90
6654;DHT22;3363;50.942;7.034;2023-07-29T14:09:06;20.40;99.90
6654;DHT22;3363;50.942;7.034;2023-07-29T14:11:34;20.40;99.90
6654;DHT22;3363;50.942;7.034;2023-07-29T14:14:01;20.40;99.90
6654;DHT22;3363;50.942;7.034;2023-07-29T14:16:28;20.50;99.90
6654;DHT22;3363;50.942;7.034;2023-07-29T14:18:55;20.50;99.90
6654;DHT22;3363;50.942;7.034;2023-07-29T14:21:21;20.50;99.90
6654;DHT22;3363;50.942;7.034;2023-07-29T14:23:48;20.60;99.90
6654;DHT22;3363;50.942;7.034;2023-07-29T14:26:15;20.60;99.90
6654;DHT22;3363;50.942;7.034;2023-07-29T14:28:43;20.70;99.90
6654;DHT22;3363;50.942;7.034;2023-07-29T14:31:09;20.80;99.90
6654;DHT22;3363;50.942;7.034;2023-07-29T14:33:36;20.80;99.90
6654;DHT22;3363;50.942;7.034;2023-07-29T14:36:03;21.00;99.90
6654;DHT22;3363;50.942;7.034;2023-07-29T14:38:32;21.20;99.90
6654;DHT22;3363;50.942;7.034;2023-07-29T14:40:59;21.30;99.90
6654;DHT22;3363;50.942;7.034;2023-07-29T14:43:26;21.20;99.90
6654;DHT22;3363;50.942;7.034;2023-07-29T14:45:54;21.20;99.90
6654;DHT22;3363;50.942;7.034;2023-07-29T14:48:20;21.10;99.90
6654;DHT22;3363;50.942;7.034;2023-07-29T14:50:47;21.00;99.90
6654;DHT22;3363;50.942;7.034;2023-07-29T14:53:14;21.10;99.90
6654;DHT22;3363;50.942;7.034;2023-07-29T14:55:40;21.10;99.90
6654;DHT22;3363;50.942;7.034;2023-07-29T14:58:07;20.90;99.90
6654;DHT22;3363;50.942;7.034;2023-07-29T15:00:34;20.90;99.90
6654;DHT22;3363;50.942;7.034;2023-07-29T15:03:02;21.00;99.90
6654;DHT22;3363;50.942;7.034;2023-07-29T15:05:29;21.00;99.90
6654;DHT22;3363;50.942;7.034;2023-07-29T15:07:56;21.00;99.90
6654;DHT22;3363;50.942;7.034;2023-07-29T15:10:22;21.10;99.90
6654;DHT22;3363;50.942;7.034;2023-07-29T15:12:49;21.00;99.90
6654;DHT22;3363;50.942;7.034;2023-07-29T15:15:17;20.90;99.90
6654;DHT22;3363;50.942;7.034;2023-07-29T15:17:44;20.90;99.90
6654;DHT22;3363;50.942;7.034;2023-07-29T15:20:12;20.80;99.90
6654;DHT22;3363;50.942;7.034;2023-07-29T15:22:38;20.80;99.90
6654;DHT22;3363;50.942;7.034;2023-07-29T15:25:07;20.80;99.90
6654;DHT22;3363;50.942;7.034;2023-07-29T15:27:34;20.80;99.90
6654;DHT22;3363;50.942;7.034;2023-07-29T15:30:01;20.80;99.90
6654;DHT22;3363;50.942;7.034;2023-07-29T15:32:28;20.90;99.90
6654;DHT22;3363;50.942;7.034;2023-07-29T15:34:55;21.00;99.90
6654;DHT22;3363;50.942;7.034;2023-07-29T15:37:23;21.10;99.90
6654;DHT22;3363;50.942;7.034;2023-07-29T15:39:51;21.20;99.90
6654;DHT22;3363;50.942;7.034;2023-07-29T15:42:18;21.20;99.90
6654;DHT22;3363;50.942;7.034;2023-07-29T15:44:44;21.10;98.60
6654;DHT22;3363;50.942;7.034;2023-07-29T15:47:11;21.00;99.20
6654;DHT22;3363;50.942;7.034;2023-07-29T15:49:41;21.00;99.90
6654;DHT22;3363;50.942;7.034;2023-07-29T15:52:08;20.90;99.90
6654;DHT22;3363;50.942;7.034;2023-07-29T15:54:37;20.90;99.90
6654;DHT22;3363;50.942;7.034;2023-07-29T15:57:04;21.00;99.90
6654;DHT22;3363;50.942;7.034;2023-07-29T15:59:31;20.90;99.90
6654;DHT22;3363;50.942;7.034;2023-07-29T16:01:58;21.00;99.90
6654;DHT22;3363;50.942;7.034;2023-07-29T16:04:25;21.00;99.90
6654;DHT22;3363;50.942;7.034;2023-07-29T16:06:52;20.90;99.90